Terry, MT (59349)

12:49 AM MDT on July 24, 2016 (GMT -0600)
Dawson Community | | Change Station

Elev 2457 ft 47.14 °N, 104.81 °W | Updated 53 minutes ago

Clear
Clear
59 °F
Feels Like 59 °F
N
6
Wind Variable Wind from WNW

Today
High -- | Low -- °F
--% Chance of Precip.
Yesterday
High -- | Low -- °F
Precip. -- in
Pressure 30.02 in
Visibility 10.0 miles
Clouds Clear
Dew Point 51 °F
Humidity 75%
Rainfall 0.00 in
Snow Depth Not available.
5:32 AM 8:42 PM
Waning Gibbous, 79% visible
METAR KGDV 240556Z AUTO 30005KT 10SM CLR 15/11 A3006 RMK AO2 SLP165 T01500106 10267 20150 402830150 51020
Pressure 30.02 in
Visibility 10.0 miles
Clouds Clear
Dew Point 51 °F
Humidity 75%
Rainfall 0.00 in
Snow Depth Not available.
5:32 AM 8:42 PM
Waning Gibbous, 79% visible
METAR KGDV 240556Z AUTO 30005KT 10SM CLR 15/11 A3006 RMK AO2 SLP165 T01500106 10267 20150 402830150 51020

10-Day Weather Forecast

Almanac

Astronomy

Jul. 24, 2016 Rise Set
Actual Time
Civil Twilight
Nautical Twilight
Astronomical Twilight
Moon
Length of Visible Light
Length of Day
Tomorrow will be .
, % of the Moon is Illuminated

Today's Extremes

State Highs State Lows

Community

WunderPhotos

Upload Photos

1,927,037 photos uploaded!

WunderBlog® & News

Nearby

Air Quality

  Air Quality AQ Index Pollutant
Not available.

Snow Depth

Station Depth Elevation

Earthquake Activity

City Distance Mag. Time & Date
Minimum magnitude displayed is 2.5.

Coastal Water Temperatures

Place Temperature

Stations

Nearby Weather Stations

Station Location Temp. Windchill Dew Point Humidity Wind Precip. Elev Updated Type
                   

Watches & Warnings

There are currently no watches in effect.